Terminal Aerodrome Forecast
Issued by NWS

Home | Current Version | Previous Version | Text Only | Print | Product List | Glossary On
Versions: 1 2 3 4 5 6 7 8 9 10 11 12
000
FTUS43 KGRR 261121
TAFMKG
TAF
KMKG 261121Z 2612/2712 12004KT P6SM FEW040 FEW250
     FM261800 21009KT P6SM SCT250
     FM270100 24004KT P6SM VCTS OVC070CB
     FM270600 30007KT P6SM OVC025=

USA.gov is the U.S. government's official web portal to all federal, state and local government web resources and services.